Delta Lindsey — WDF5519 — position and weather

sailwx.info

Track history (hours):
 
Tides and Currents Weather Stations Pressure Air Temp Water Temp Dewpoint Dewpoint Depression Visibility Wind Speed Wind Dir Waves Ship Positions

Delta Lindsey

Owner: Baydelta Navigation, Inc., San Francisco, CA. More information available from US FCC via Universal Licensing System and Coast Guard Vessel Documentation Center.

Last reported at 2016-Feb-11 08:28 UTC. Time now 2016-Feb-11 08:51 UTC.
Position N 46°02' W 122°52'.

MMSI: 233246442.

Date/timePositionNaut miles runAvg speedWind from/ knotsBaromVisibWave heightAir tempDewpointWater temp
2016-Feb-11 08:28N 46°02' W 122°52'0 0.0
2016-Feb-11 07:31N 46°02' W 122°52'0 0.0
2016-Feb-11 06:25N 46°02' W 122°52'0 0.0
2016-Feb-11 05:31N 46°02' W 122°52'0 0.0
2016-Feb-11 04:31N 46°02' W 122°52'0 0.0
2016-Feb-11 03:31N 46°02' W 122°52'0 0.0
2016-Feb-11 02:28N 46°02' W 122°52'0 0.0
2016-Feb-11 01:28N 46°02' W 122°52'0 0.0
2016-Feb-11 00:31N 46°02' W 122°52'0 0.0
2016-Feb-10 23:28N 46°02' W 122°52'0 0.0
2016-Feb-10 22:28N 46°02' W 122°52'0 0.0
2016-Feb-10 21:31N 46°02' W 122°52'0 0.0
2016-Feb-10 20:28N 46°02' W 122°52'0 0.0
2016-Feb-10 19:28N 46°02' W 122°52'0 0.0
2016-Feb-10 18:28N 46°02' W 122°52'0 0.0
2016-Feb-10 17:28N 46°02' W 122°52'0 0.0
2016-Feb-10 16:22N 46°02' W 122°52'0 0.0
2016-Feb-10 15:31N 46°02' W 122°52'0 0.0
2016-Feb-10 14:31N 46°02' W 122°52'0 0.0
2016-Feb-10 13:31N 46°02' W 122°52'0 0.0
2016-Feb-10 12:31N 46°02' W 122°52'0 0.0
2016-Feb-10 11:31N 46°02' W 122°52'0 0.0
2016-Feb-10 10:28N 46°02' W 122°52'0 0.0
2016-Feb-10 09:31N 46°02' W 122°52'0 0.0
2016-Feb-10 08:31N 46°02' W 122°52'0 0.0
2016-Feb-10 07:31N 46°02' W 122°52'0 0.0
2016-Feb-10 06:28N 46°02' W 122°52'0 0.0
2016-Feb-10 05:13N 46°02' W 122°52'0 0.0
2016-Feb-10 04:28N 46°02' W 122°52'0 0.0
2016-Feb-10 03:28N 46°02' W 122°52'0 0.0
2016-Feb-10 02:31N 46°02' W 122°52'1 0.7
2016-Feb-10 01:33N 46°01' W 122°52'1 0.7
2016-Feb-10 00:33N 46°02' W 122°52'0 0.0
2016-Feb-09 23:33N 46°02' W 122°52'0 0.0
2016-Feb-09 22:21N 46°02' W 122°52'0 0.0
2016-Feb-09 21:33N 46°02' W 122°52'0 0.0
2016-Feb-09 20:27N 46°02' W 122°52'2 2.2
2016-Feb-09 19:33N 46°04' W 122°53'5 4.9
2016-Feb-09 18:33N 45°59' W 122°50'1010.5
2016-Feb-09 17:33N 45°49' W 122°48'1110.6
2016-Feb-09 16:33N 45°38' W 122°44'1 0.6
2016-Feb-09 15:33N 45°38' W 122°43'0 0.0
2016-Feb-09 14:33N 45°38' W 122°43'0 0.0
2016-Feb-09 13:34N 45°38' W 122°43'0 0.0
2016-Feb-09 12:33N 45°38' W 122°43'0 0.0
2016-Feb-09 11:33N 45°38' W 122°43'0 0.0
2016-Feb-09 10:33N 45°38' W 122°43'0 0.0
2016-Feb-09 09:33N 45°38' W 122°43'0 0.0
2016-Feb-09 08:33N 45°38' W 122°43'0 0.0
2016-Feb-09 07:33N 45°38' W 122°43'0 0.0
2016-Feb-09 06:33N 45°38' W 122°43'0 0.0
2016-Feb-09 05:33N 45°38' W 122°43'0 0.0
2016-Feb-09 04:34N 45°38' W 122°43'0 0.0
2016-Feb-09 03:34N 45°38' W 122°43'0 0.0
2016-Feb-09 02:34N 45°38' W 122°43'0 0.0
2016-Feb-09 01:33N 45°38' W 122°43'3 3.0
2016-Feb-09 00:34N 45°38' W 122°47'5 5.0
2016-Feb-08 23:33N 45°34' W 122°43'0 0.0
2016-Feb-08 22:33N 45°34' W 122°43'4 3.9
2016-Feb-08 21:33N 45°36' W 122°47'3 3.2
2016-Feb-08 20:33N 45°38' W 122°44'0 0.2
2016-Feb-08 19:22N 45°38' W 122°43'0 0.0
2016-Feb-08 18:16N 45°38' W 122°43'0 0.0
2016-Feb-08 17:31N 45°38' W 122°43'0 0.0
2016-Feb-08 16:28N 45°38' W 122°43'0 0.0
2016-Feb-08 15:28N 45°38' W 122°43'0 0.0
2016-Feb-08 14:31N 45°38' W 122°43'0 0.0
2016-Feb-08 13:25N 45°38' W 122°43'0 0.0
2016-Feb-08 12:31N 45°38' W 122°43'0 0.0
2016-Feb-08 11:31N 45°38' W 122°43'0 0.0
2016-Feb-08 10:31N 45°38' W 122°43'0 0.0
2016-Feb-08 09:07N 45°38' W 122°43'0 0.0
2016-Feb-08 08:31N 45°38' W 122°43'0 0.0
2016-Feb-08 07:19N 45°38' W 122°43'0 0.0
2016-Feb-08 06:31N 45°38' W 122°43'0 0.0
2016-Feb-08 05:31N 45°38' W 122°43'0 0.0
2016-Feb-08 04:31N 45°38' W 122°43'0 0.0
2016-Feb-08 03:31N 45°38' W 122°43'0 0.0
2016-Feb-08 02:28N 45°38' W 122°43'0 0.0
2016-Feb-08 01:25N 45°38' W 122°43'0 0.0
2016-Feb-08 00:28N 45°38' W 122°43'0 0.0
2016-Feb-07 23:31N 45°38' W 122°43'0 0.0
2016-Feb-07 22:28N 45°38' W 122°43'0 0.0
2016-Feb-07 21:31N 45°38' W 122°43'0 0.0
2016-Feb-07 20:28N 45°38' W 122°43'0 0.0
2016-Feb-07 19:31N 45°38' W 122°43'0 0.0
2016-Feb-07 18:31N 45°38' W 122°43'0 0.0
2016-Feb-07 17:07N 45°38' W 122°43'0 0.0
2016-Feb-07 16:31N 45°38' W 122°43'0 0.0
2016-Feb-07 15:31N 45°38' W 122°43'0 0.0
2016-Feb-07 14:31N 45°38' W 122°43'0 0.0
2016-Feb-07 13:22N 45°38' W 122°43'0 0.0
2016-Feb-07 12:28N 45°38' W 122°43'0 0.0
2016-Feb-07 11:28N 45°38' W 122°43'0 0.0
2016-Feb-07 10:31N 45°38' W 122°43'0 0.0
2016-Feb-07 09:31N 45°38' W 122°43'0 0.0
2016-Feb-07 08:31N 45°38' W 122°43'0 0.0
2016-Feb-07 07:28N 45°38' W 122°43'0 0.0
2016-Feb-07 06:31N 45°38' W 122°43'0 0.0
2016-Feb-07 05:22N 45°38' W 122°43'0 0.0
2016-Feb-07 04:28N 45°38' W 122°43'0 0.0
2016-Feb-07 03:28N 45°38' W 122°43'0 0.0
2016-Feb-07 02:16N 45°38' W 122°43'0 0.0
2016-Feb-07 01:28N 45°38' W 122°43'0 0.0
2016-Feb-07 00:25N 45°38' W 122°43'0 0.0
2016-Feb-06 23:28N 45°38' W 122°43'0 0.0
2016-Feb-06 22:31N 45°38' W 122°43'0 0.0
2016-Feb-06 21:19N 45°38' W 122°43'0 0.0
2016-Feb-06 20:31N 45°38' W 122°43'0 0.0
2016-Feb-06 19:25N 45°38' W 122°43'0 0.0
2016-Feb-06 17:19N 45°38' W 122°43'0 0.0
2016-Feb-06 16:28N 45°38' W 122°43'0 0.0
2016-Feb-06 15:31N 45°38' W 122°43'0 0.0
2016-Feb-06 14:31N 45°38' W 122°43'0 0.0
2016-Feb-06 13:31N 45°38' W 122°43'0 0.0
2016-Feb-06 12:22N 45°38' W 122°43'0 0.0
2016-Feb-06 11:31N 45°38' W 122°43'0 0.0
2016-Feb-06 10:25N 45°38' W 122°43'0 0.0
2016-Feb-06 09:31N 45°38' W 122°43'0 0.0
2016-Feb-06 08:28N 45°38' W 122°43'0 0.0
2016-Feb-06 07:31N 45°38' W 122°43'0 0.0
2016-Feb-06 06:31N 45°38' W 122°43'0 0.0
2016-Feb-06 05:31N 45°38' W 122°43'0 0.0
2016-Feb-06 04:28N 45°38' W 122°43'0 0.0
2016-Feb-06 03:31N 45°38' W 122°43'0 0.0
2016-Feb-06 02:31N 45°38' W 122°43'0 0.0
2016-Feb-06 01:31N 45°38' W 122°43'0 0.0
2016-Feb-06 00:31N 45°38' W 122°43'0 0.0
2016-Feb-05 23:13N 45°38' W 122°43'0 0.0
2016-Feb-05 22:28N 45°38' W 122°43'0 0.0
2016-Feb-05 21:31N 45°38' W 122°43'0 0.0
2016-Feb-05 20:28N 45°38' W 122°43'0 0.0
2016-Feb-05 19:31N 45°38' W 122°43'0 0.0
2016-Feb-05 18:16N 45°38' W 122°43'0 0.0
2016-Feb-05 17:28N 45°38' W 122°43'0 0.0
2016-Feb-05 16:28N 45°38' W 122°43'0 0.0
2016-Feb-05 15:28N 45°38' W 122°43'0 0.0
2016-Feb-05 14:10N 45°38' W 122°43'0 0.0
2016-Feb-05 13:25N 45°38' W 122°43'0 0.0
2016-Feb-05 12:22N 45°38' W 122°43'0 0.0
2016-Feb-05 11:31N 45°38' W 122°43'0 0.0
2016-Feb-05 10:28N 45°38' W 122°43'0 0.0
2016-Feb-05 09:28N 45°38' W 122°43'0 0.0
2016-Feb-05 08:28N 45°38' W 122°43'0 0.0
2016-Feb-05 07:31N 45°38' W 122°43'0 0.0
2016-Feb-05 06:25N 45°38' W 122°43'0 0.0
2016-Feb-05 05:31N 45°38' W 122°43'0 0.0
2016-Feb-05 04:28N 45°38' W 122°43'0 0.0
2016-Feb-05 03:28N 45°38' W 122°43'0 0.0
2016-Feb-05 02:28N 45°38' W 122°43'0 0.0
2016-Feb-05 01:31N 45°38' W 122°43'3 3.5
2016-Feb-05 00:31N 45°37' W 122°39'0 0.0
2016-Feb-04 23:25N 45°37' W 122°39'0 0.0
2016-Feb-04 22:31N 45°37' W 122°39'0 0.0
2016-Feb-04 21:31N 45°37' W 122°39'0 0.0
2016-Feb-04 20:31N 45°37' W 122°39'0 0.0
2016-Feb-04 19:33N 45°37' W 122°39'3 3.4
2016-Feb-04 18:33N 45°38' W 122°43'0 0.1
2016-Feb-04 17:29N 45°38' W 122°43'0 0.0
2016-Feb-04 16:29N 45°38' W 122°43'0 0.0
2016-Feb-04 15:32N 45°38' W 122°43'0 0.0
2016-Feb-04 14:29N 45°38' W 122°43'0 0.0
2016-Feb-04 13:32N 45°38' W 122°43'0 0.0
2016-Feb-04 12:32N 45°38' W 122°43'0 0.0
2016-Feb-04 11:29N 45°38' W 122°43'0 0.0
2016-Feb-04 10:17N 45°38' W 122°43'0 0.0
2016-Feb-04 09:29N 45°38' W 122°43'0 0.0
2016-Feb-04 08:32N 45°38' W 122°43'0 0.0
2016-Feb-04 07:32N 45°38' W 122°43'0 0.0
2016-Feb-04 06:26N 45°38' W 122°43'0 0.0
2016-Feb-04 05:29N 45°38' W 122°43'0 0.0
2016-Feb-04 04:32N 45°38' W 122°43'0 0.0
2016-Feb-04 03:32N 45°38' W 122°43'0 0.0
2016-Feb-04 02:32N 45°38' W 122°43'0 0.0
2016-Feb-04 01:26N 45°38' W 122°43'0 0.0
2016-Feb-04 00:32N 45°38' W 122°43'0 0.0
2016-Feb-03 23:14N 45°38' W 122°43'0 0.0
2016-Feb-03 22:26N 45°38' W 122°43'0 0.0
2016-Feb-03 21:26N 45°38' W 122°43'0 0.0
2016-Feb-03 20:32N 45°38' W 122°43'0 0.0
2016-Feb-03 19:32N 45°38' W 122°43'0 0.0
2016-Feb-03 18:26N 45°38' W 122°43'0 0.0
2016-Feb-03 17:14N 45°38' W 122°43'0 0.0
2016-Feb-03 16:29N 45°38' W 122°43'0 0.0
2016-Feb-03 15:23N 45°38' W 122°43'0 0.0
2016-Feb-03 14:32N 45°38' W 122°43'0 0.0
2016-Feb-03 13:32N 45°38' W 122°43'0 0.0
2016-Feb-03 12:32N 45°38' W 122°43'0 0.0
2016-Feb-03 11:32N 45°38' W 122°43'0 0.0
2016-Feb-03 10:26N 45°38' W 122°43'0 0.0
2016-Feb-03 09:32N 45°38' W 122°43'0 0.0
2016-Feb-03 08:23N 45°38' W 122°43'0 0.0
2016-Feb-03 07:26N 45°38' W 122°43'0 0.0
2016-Feb-03 06:28N 45°38' W 122°43'0 0.0
2016-Feb-03 05:26N 45°38' W 122°43'0 0.0
2016-Feb-03 04:20N 45°38' W 122°43'0 0.0
2016-Feb-03 03:26N 45°38' W 122°43'0 0.0
2016-Feb-03 02:26N 45°38' W 122°43'0 0.0
2016-Feb-03 01:32N 45°38' W 122°43'0 0.0
2016-Feb-03 00:31N 45°38' W 122°43'0 0.0
2016-Feb-02 23:32N 45°38' W 122°43'0 0.0
2016-Feb-02 22:32N 45°38' W 122°43'0 0.0
2016-Feb-02 21:28N 45°38' W 122°43'0 0.0
2016-Feb-02 20:31N 45°38' W 122°43'0 0.0
2016-Feb-02 19:31N 45°38' W 122°43'0 0.0
2016-Feb-02 18:31N 45°38' W 122°43'0 0.0
2016-Feb-02 17:31N 45°38' W 122°43'0 0.0
2016-Feb-02 16:32N 45°38' W 122°43'0 0.0
2016-Feb-02 15:32N 45°38' W 122°43'0 0.0
2016-Feb-02 14:26N 45°38' W 122°43'0 0.0
2016-Feb-02 13:32N 45°38' W 122°43'0 0.0
2016-Feb-02 12:22N 45°38' W 122°43'0 0.0
2016-Feb-02 11:28N 45°38' W 122°43'0 0.0
2016-Feb-02 10:28N 45°38' W 122°43'0 0.0
2016-Feb-02 09:31N 45°38' W 122°43'0 0.0
2016-Feb-02 08:22N 45°38' W 122°43'0 0.0
2016-Feb-02 07:28N 45°38' W 122°43'0 0.0
2016-Feb-02 06:28N 45°38' W 122°43'0 0.0
2016-Feb-02 05:28N 45°38' W 122°43'0 0.0
2016-Feb-02 04:28N 45°38' W 122°43'0 0.0
2016-Feb-02 03:31N 45°38' W 122°43'0 0.0
2016-Feb-02 02:31N 45°38' W 122°43'0 0.0
2016-Feb-02 01:31N 45°38' W 122°43'0 0.0
2016-Feb-02 00:31N 45°38' W 122°43'0 0.0
2016-Feb-01 23:26N 45°38' W 122°43'0 0.0
2016-Feb-01 22:28N 45°38' W 122°43'0 0.0
2016-Feb-01 21:28N 45°38' W 122°43'0 0.0
2016-Feb-01 20:28N 45°38' W 122°43'0 0.0
2016-Feb-01 19:31N 45°38' W 122°43'0 0.0
2016-Feb-01 18:28N 45°38' W 122°43'0 0.0
2016-Feb-01 17:22N 45°38' W 122°43'0 0.0
2016-Feb-01 16:31N 45°38' W 122°43'0 0.0
2016-Feb-01 15:28N 45°38' W 122°43'0 0.0
2016-Feb-01 14:28N 45°38' W 122°43'0 0.0
2016-Feb-01 13:31N 45°38' W 122°43'0 0.0
2016-Feb-01 12:25N 45°38' W 122°43'0 0.0
2016-Feb-01 11:31N 45°38' W 122°43'0 0.0
2016-Feb-01 10:28N 45°38' W 122°43'0 0.0
2016-Feb-01 09:31N 45°38' W 122°43'0 0.0
2016-Feb-01 08:31N 45°38' W 122°43'  
Track history (hours):
 
Tides and Currents Weather Stations Pressure Air Temp Water Temp Dewpoint Dewpoint Depression Visibility Wind Speed Wind Dir Waves Ship Positions

Delta Lindsey

Owner: Baydelta Navigation, Inc., San Francisco, CA. More information available from US FCC via Universal Licensing System and Coast Guard Vessel Documentation Center.

Last reported at 2016-Feb-11 08:28 UTC. Time now 2016-Feb-11 08:51 UTC.
Position N 46°02' W 122°52'.

MMSI: 233246442.

Date/timePositionNaut miles runAvg speedWind from/ knotsBaromVisibWave heightAir tempDewpointWater temp
2016-Feb-11 08:28N 46°02' W 122°52'0 0.0
2016-Feb-11 07:31N 46°02' W 122°52'0 0.0
2016-Feb-11 06:25N 46°02' W 122°52'0 0.0
2016-Feb-11 05:31N 46°02' W 122°52'0 0.0
2016-Feb-11 04:31N 46°02' W 122°52'0 0.0
2016-Feb-11 03:31N 46°02' W 122°52'0 0.0
2016-Feb-11 02:28N 46°02' W 122°52'0 0.0
2016-Feb-11 01:28N 46°02' W 122°52'0 0.0
2016-Feb-11 00:31N 46°02' W 122°52'0 0.0
2016-Feb-10 23:28N 46°02' W 122°52'0 0.0
2016-Feb-10 22:28N 46°02' W 122°52'0 0.0
2016-Feb-10 21:31N 46°02' W 122°52'0 0.0
2016-Feb-10 20:28N 46°02' W 122°52'0 0.0
2016-Feb-10 19:28N 46°02' W 122°52'0 0.0
2016-Feb-10 18:28N 46°02' W 122°52'0 0.0
2016-Feb-10 17:28N 46°02' W 122°52'0 0.0
2016-Feb-10 16:22N 46°02' W 122°52'0 0.0
2016-Feb-10 15:31N 46°02' W 122°52'0 0.0
2016-Feb-10 14:31N 46°02' W 122°52'0 0.0
2016-Feb-10 13:31N 46°02' W 122°52'0 0.0
2016-Feb-10 12:31N 46°02' W 122°52'0 0.0
2016-Feb-10 11:31N 46°02' W 122°52'0 0.0
2016-Feb-10 10:28N 46°02' W 122°52'0 0.0
2016-Feb-10 09:31N 46°02' W 122°52'0 0.0
2016-Feb-10 08:31N 46°02' W 122°52'0 0.0
2016-Feb-10 07:31N 46°02' W 122°52'0 0.0
2016-Feb-10 06:28N 46°02' W 122°52'0 0.0
2016-Feb-10 05:13N 46°02' W 122°52'0 0.0
2016-Feb-10 04:28N 46°02' W 122°52'0 0.0
2016-Feb-10 03:28N 46°02' W 122°52'0 0.0
2016-Feb-10 02:31N 46°02' W 122°52'1 0.7
2016-Feb-10 01:33N 46°01' W 122°52'1 0.7
2016-Feb-10 00:33N 46°02' W 122°52'0 0.0
2016-Feb-09 23:33N 46°02' W 122°52'0 0.0
2016-Feb-09 22:21N 46°02' W 122°52'0 0.0
2016-Feb-09 21:33N 46°02' W 122°52'0 0.0
2016-Feb-09 20:27N 46°02' W 122°52'2 2.2
2016-Feb-09 19:33N 46°04' W 122°53'5 4.9
2016-Feb-09 18:33N 45°59' W 122°50'1010.5
2016-Feb-09 17:33N 45°49' W 122°48'1110.6
2016-Feb-09 16:33N 45°38' W 122°44'1 0.6
2016-Feb-09 15:33N 45°38' W 122°43'0 0.0
2016-Feb-09 14:33N 45°38' W 122°43'0 0.0
2016-Feb-09 13:34N 45°38' W 122°43'0 0.0
2016-Feb-09 12:33N 45°38' W 122°43'0 0.0
2016-Feb-09 11:33N 45°38' W 122°43'0 0.0
2016-Feb-09 10:33N 45°38' W 122°43'0 0.0
2016-Feb-09 09:33N 45°38' W 122°43'0 0.0
2016-Feb-09 08:33N 45°38' W 122°43'0 0.0
2016-Feb-09 07:33N 45°38' W 122°43'0 0.0
2016-Feb-09 06:33N 45°38' W 122°43'0 0.0
2016-Feb-09 05:33N 45°38' W 122°43'0 0.0
2016-Feb-09 04:34N 45°38' W 122°43'0 0.0
2016-Feb-09 03:34N 45°38' W 122°43'0 0.0
2016-Feb-09 02:34N 45°38' W 122°43'0 0.0
2016-Feb-09 01:33N 45°38' W 122°43'3 3.0
2016-Feb-09 00:34N 45°38' W 122°47'5 5.0
2016-Feb-08 23:33N 45°34' W 122°43'0 0.0
2016-Feb-08 22:33N 45°34' W 122°43'4 3.9
2016-Feb-08 21:33N 45°36' W 122°47'3 3.2
2016-Feb-08 20:33N 45°38' W 122°44'0 0.2
2016-Feb-08 19:22N 45°38' W 122°43'0 0.0
2016-Feb-08 18:16N 45°38' W 122°43'0 0.0
2016-Feb-08 17:31N 45°38' W 122°43'0 0.0
2016-Feb-08 16:28N 45°38' W 122°43'0 0.0
2016-Feb-08 15:28N 45°38' W 122°43'0 0.0
2016-Feb-08 14:31N 45°38' W 122°43'0 0.0
2016-Feb-08 13:25N 45°38' W 122°43'0 0.0
2016-Feb-08 12:31N 45°38' W 122°43'0 0.0
2016-Feb-08 11:31N 45°38' W 122°43'0 0.0
2016-Feb-08 10:31N 45°38' W 122°43'0 0.0
2016-Feb-08 09:07N 45°38' W 122°43'0 0.0
2016-Feb-08 08:31N 45°38' W 122°43'0 0.0
2016-Feb-08 07:19N 45°38' W 122°43'0 0.0
2016-Feb-08 06:31N 45°38' W 122°43'0 0.0
2016-Feb-08 05:31N 45°38' W 122°43'0 0.0
2016-Feb-08 04:31N 45°38' W 122°43'0 0.0
2016-Feb-08 03:31N 45°38' W 122°43'0 0.0
2016-Feb-08 02:28N 45°38' W 122°43'0 0.0
2016-Feb-08 01:25N 45°38' W 122°43'0 0.0
2016-Feb-08 00:28N 45°38' W 122°43'0 0.0
2016-Feb-07 23:31N 45°38' W 122°43'0 0.0
2016-Feb-07 22:28N 45°38' W 122°43'0 0.0
2016-Feb-07 21:31N 45°38' W 122°43'0 0.0
2016-Feb-07 20:28N 45°38' W 122°43'0 0.0
2016-Feb-07 19:31N 45°38' W 122°43'0 0.0
2016-Feb-07 18:31N 45°38' W 122°43'0 0.0
2016-Feb-07 17:07N 45°38' W 122°43'0 0.0
2016-Feb-07 16:31N 45°38' W 122°43'0 0.0
2016-Feb-07 15:31N 45°38' W 122°43'0 0.0
2016-Feb-07 14:31N 45°38' W 122°43'0 0.0
2016-Feb-07 13:22N 45°38' W 122°43'0 0.0
2016-Feb-07 12:28N 45°38' W 122°43'0 0.0
2016-Feb-07 11:28N 45°38' W 122°43'0 0.0
2016-Feb-07 10:31N 45°38' W 122°43'0 0.0
2016-Feb-07 09:31N 45°38' W 122°43'0 0.0
2016-Feb-07 08:31N 45°38' W 122°43'0 0.0
2016-Feb-07 07:28N 45°38' W 122°43'0 0.0
2016-Feb-07 06:31N 45°38' W 122°43'0 0.0
2016-Feb-07 05:22N 45°38' W 122°43'0 0.0
2016-Feb-07 04:28N 45°38' W 122°43'0 0.0
2016-Feb-07 03:28N 45°38' W 122°43'0 0.0
2016-Feb-07 02:16N 45°38' W 122°43'0 0.0
2016-Feb-07 01:28N 45°38' W 122°43'0 0.0
2016-Feb-07 00:25N 45°38' W 122°43'0 0.0
2016-Feb-06 23:28N 45°38' W 122°43'0 0.0
2016-Feb-06 22:31N 45°38' W 122°43'0 0.0
2016-Feb-06 21:19N 45°38' W 122°43'0 0.0
2016-Feb-06 20:31N 45°38' W 122°43'0 0.0
2016-Feb-06 19:25N 45°38' W 122°43'0 0.0
2016-Feb-06 17:19N 45°38' W 122°43'0 0.0
2016-Feb-06 16:28N 45°38' W 122°43'0 0.0
2016-Feb-06 15:31N 45°38' W 122°43'0 0.0
2016-Feb-06 14:31N 45°38' W 122°43'0 0.0
2016-Feb-06 13:31N 45°38' W 122°43'0 0.0
2016-Feb-06 12:22N 45°38' W 122°43'0 0.0
2016-Feb-06 11:31N 45°38' W 122°43'0 0.0
2016-Feb-06 10:25N 45°38' W 122°43'0 0.0
2016-Feb-06 09:31N 45°38' W 122°43'0 0.0
2016-Feb-06 08:28N 45°38' W 122°43'0 0.0
2016-Feb-06 07:31N 45°38' W 122°43'0 0.0
2016-Feb-06 06:31N 45°38' W 122°43'0 0.0
2016-Feb-06 05:31N 45°38' W 122°43'0 0.0
2016-Feb-06 04:28N 45°38' W 122°43'0 0.0
2016-Feb-06 03:31N 45°38' W 122°43'0 0.0
2016-Feb-06 02:31N 45°38' W 122°43'0 0.0
2016-Feb-06 01:31N 45°38' W 122°43'0 0.0
2016-Feb-06 00:31N 45°38' W 122°43'0 0.0
2016-Feb-05 23:13N 45°38' W 122°43'0 0.0
2016-Feb-05 22:28N 45°38' W 122°43'0 0.0
2016-Feb-05 21:31N 45°38' W 122°43'0 0.0
2016-Feb-05 20:28N 45°38' W 122°43'0 0.0
2016-Feb-05 19:31N 45°38' W 122°43'0 0.0
2016-Feb-05 18:16N 45°38' W 122°43'0 0.0
2016-Feb-05 17:28N 45°38' W 122°43'0 0.0
2016-Feb-05 16:28N 45°38' W 122°43'0 0.0
2016-Feb-05 15:28N 45°38' W 122°43'0 0.0
2016-Feb-05 14:10N 45°38' W 122°43'0 0.0
2016-Feb-05 13:25N 45°38' W 122°43'0 0.0
2016-Feb-05 12:22N 45°38' W 122°43'0 0.0
2016-Feb-05 11:31N 45°38' W 122°43'0 0.0
2016-Feb-05 10:28N 45°38' W 122°43'0 0.0
2016-Feb-05 09:28N 45°38' W 122°43'0 0.0
2016-Feb-05 08:28N 45°38' W 122°43'0 0.0
2016-Feb-05 07:31N 45°38' W 122°43'0 0.0
2016-Feb-05 06:25N 45°38' W 122°43'0 0.0
2016-Feb-05 05:31N 45°38' W 122°43'0 0.0
2016-Feb-05 04:28N 45°38' W 122°43'0 0.0
2016-Feb-05 03:28N 45°38' W 122°43'0 0.0
2016-Feb-05 02:28N 45°38' W 122°43'0 0.0
2016-Feb-05 01:31N 45°38' W 122°43'3 3.5
2016-Feb-05 00:31N 45°37' W 122°39'0 0.0
2016-Feb-04 23:25N 45°37' W 122°39'0 0.0
2016-Feb-04 22:31N 45°37' W 122°39'0 0.0
2016-Feb-04 21:31N 45°37' W 122°39'0 0.0
2016-Feb-04 20:31N 45°37' W 122°39'0 0.0
2016-Feb-04 19:33N 45°37' W 122°39'3 3.4
2016-Feb-04 18:33N 45°38' W 122°43'0 0.1
2016-Feb-04 17:29N 45°38' W 122°43'0 0.0
2016-Feb-04 16:29N 45°38' W 122°43'0 0.0
2016-Feb-04 15:32N 45°38' W 122°43'0 0.0
2016-Feb-04 14:29N 45°38' W 122°43'0 0.0
2016-Feb-04 13:32N 45°38' W 122°43'0 0.0
2016-Feb-04 12:32N 45°38' W 122°43'0 0.0
2016-Feb-04 11:29N 45°38' W 122°43'0 0.0
2016-Feb-04 10:17N 45°38' W 122°43'0 0.0
2016-Feb-04 09:29N 45°38' W 122°43'0 0.0
2016-Feb-04 08:32N 45°38' W 122°43'0 0.0
2016-Feb-04 07:32N 45°38' W 122°43'0 0.0
2016-Feb-04 06:26N 45°38' W 122°43'0 0.0
2016-Feb-04 05:29N 45°38' W 122°43'0 0.0
2016-Feb-04 04:32N 45°38' W 122°43'0 0.0
2016-Feb-04 03:32N 45°38' W 122°43'0 0.0
2016-Feb-04 02:32N 45°38' W 122°43'0 0.0
2016-Feb-04 01:26N 45°38' W 122°43'0 0.0
2016-Feb-04 00:32N 45°38' W 122°43'0 0.0
2016-Feb-03 23:14N 45°38' W 122°43'0 0.0
2016-Feb-03 22:26N 45°38' W 122°43'0 0.0
2016-Feb-03 21:26N 45°38' W 122°43'0 0.0
2016-Feb-03 20:32N 45°38' W 122°43'0 0.0
2016-Feb-03 19:32N 45°38' W 122°43'0 0.0
2016-Feb-03 18:26N 45°38' W 122°43'0 0.0
2016-Feb-03 17:14N 45°38' W 122°43'0 0.0
2016-Feb-03 16:29N 45°38' W 122°43'0 0.0
2016-Feb-03 15:23N 45°38' W 122°43'0 0.0
2016-Feb-03 14:32N 45°38' W 122°43'0 0.0
2016-Feb-03 13:32N 45°38' W 122°43'0 0.0
2016-Feb-03 12:32N 45°38' W 122°43'0 0.0
2016-Feb-03 11:32N 45°38' W 122°43'0 0.0
2016-Feb-03 10:26N 45°38' W 122°43'0 0.0
2016-Feb-03 09:32N 45°38' W 122°43'0 0.0
2016-Feb-03 08:23N 45°38' W 122°43'0 0.0
2016-Feb-03 07:26N 45°38' W 122°43'0 0.0
2016-Feb-03 06:28N 45°38' W 122°43'0 0.0
2016-Feb-03 05:26N 45°38' W 122°43'0 0.0
2016-Feb-03 04:20N 45°38' W 122°43'0 0.0
2016-Feb-03 03:26N 45°38' W 122°43'0 0.0
2016-Feb-03 02:26N 45°38' W 122°43'0 0.0
2016-Feb-03 01:32N 45°38' W 122°43'0 0.0
2016-Feb-03 00:31N 45°38' W 122°43'0 0.0
2016-Feb-02 23:32N 45°38' W 122°43'0 0.0
2016-Feb-02 22:32N 45°38' W 122°43'0 0.0
2016-Feb-02 21:28N 45°38' W 122°43'0 0.0
2016-Feb-02 20:31N 45°38' W 122°43'0 0.0
2016-Feb-02 19:31N 45°38' W 122°43'0 0.0
2016-Feb-02 18:31N 45°38' W 122°43'0 0.0
2016-Feb-02 17:31N 45°38' W 122°43'0 0.0
2016-Feb-02 16:32N 45°38' W 122°43'0 0.0
2016-Feb-02 15:32N 45°38' W 122°43'0 0.0
2016-Feb-02 14:26N 45°38' W 122°43'0 0.0
2016-Feb-02 13:32N 45°38' W 122°43'0 0.0
2016-Feb-02 12:22N 45°38' W 122°43'0 0.0
2016-Feb-02 11:28N 45°38' W 122°43'0 0.0
2016-Feb-02 10:28N 45°38' W 122°43'0 0.0
2016-Feb-02 09:31N 45°38' W 122°43'0 0.0
2016-Feb-02 08:22N 45°38' W 122°43'0 0.0
2016-Feb-02 07:28N 45°38' W 122°43'0 0.0
2016-Feb-02 06:28N 45°38' W 122°43'0 0.0
2016-Feb-02 05:28N 45°38' W 122°43'0 0.0
2016-Feb-02 04:28N 45°38' W 122°43'0 0.0
2016-Feb-02 03:31N 45°38' W 122°43'0 0.0
2016-Feb-02 02:31N 45°38' W 122°43'0 0.0
2016-Feb-02 01:31N 45°38' W 122°43'0 0.0
2016-Feb-02 00:31N 45°38' W 122°43'0 0.0
2016-Feb-01 23:26N 45°38' W 122°43'0 0.0
2016-Feb-01 22:28N 45°38' W 122°43'0 0.0
2016-Feb-01 21:28N 45°38' W 122°43'0 0.0
2016-Feb-01 20:28N 45°38' W 122°43'0 0.0
2016-Feb-01 19:31N 45°38' W 122°43'0 0.0
2016-Feb-01 18:28N 45°38' W 122°43'0 0.0
2016-Feb-01 17:22N 45°38' W 122°43'0 0.0
2016-Feb-01 16:31N 45°38' W 122°43'0 0.0
2016-Feb-01 15:28N 45°38' W 122°43'0 0.0
2016-Feb-01 14:28N 45°38' W 122°43'0 0.0
2016-Feb-01 13:31N 45°38' W 122°43'0 0.0
2016-Feb-01 12:25N 45°38' W 122°43'0 0.0
2016-Feb-01 11:31N 45°38' W 122°43'0 0.0
2016-Feb-01 10:28N 45°38' W 122°43'0 0.0
2016-Feb-01 09:31N 45°38' W 122°43'0 0.0
2016-Feb-01 08:31N 45°38' W 122°43'  

Dump ship's entire track history